EDW79 FIMP-FSIA
Flight info
| Callsign | EDW79 |
|---|---|
| Flight time | 2h 20m |
| Altitude | 39000 |
| Route | DURDA1C DURDA UT401 ALRAN/N0461F400 UM313 RERUS DCT IMPOX |
| Aircraft | A343/H-SDE2E3FGHIJ4J5M1RWXY/LB1D1 |
Departure
| Time | 2026-04-26 10:41 |
|---|---|
| Airport | Sir Seewoosagur Ramgoolam International Airport (FIMP) |
Arrival
| Time | 2026-04-26 13:02 |
|---|---|
| Airport | Seychelles International Airport (FSIA) |
| Time | Latitude | Longitude | Altitude | Speed | Heading |
|---|---|---|---|---|---|
| 2026-04-26 10:15 | -20.43144 | 57.67851 | 194 ft | 0 kts | 212° |
| 2026-04-26 10:29 | -20.43134 | 57.67857 | 194 ft | 2 kts | 212° |
| 2026-04-26 10:29 | -20.43121 | 57.67865 | 194 ft | 2 kts | 212° |
| 2026-04-26 10:29 | -20.43108 | 57.67874 | 194 ft | 2 kts | 212° |
| 2026-04-26 10:29 | -20.43095 | 57.67882 | 194 ft | 2 kts | 220° |
| 2026-04-26 10:30 | -20.43085 | 57.67894 | 194 ft | 2 kts | 240° |
| 2026-04-26 10:30 | -20.43079 | 57.67908 | 194 ft | 2 kts | 256° |
| 2026-04-26 10:30 | -20.43076 | 57.67924 | 194 ft | 2 kts | 272° |
| 2026-04-26 10:30 | -20.43078 | 57.67939 | 194 ft | 2 kts | 289° |
| 2026-04-26 10:31 | -20.43081 | 57.67947 | 194 ft | 1 kts | 297° |
| 2026-04-26 10:31 | -20.43082 | 57.67950 | 194 ft | 0 kts | 297° |
| 2026-04-26 10:34 | -20.43076 | 57.67938 | 194 ft | 4 kts | 298° |
| 2026-04-26 10:34 | -20.43059 | 57.67905 | 194 ft | 4 kts | 299° |
| 2026-04-26 10:34 | -20.43046 | 57.67879 | 194 ft | 3 kts | 298° |
| 2026-04-26 10:34 | -20.43035 | 57.67858 | 194 ft | 3 kts | 300° |
| 2026-04-26 10:35 | -20.43023 | 57.67835 | 194 ft | 4 kts | 297° |
| 2026-04-26 10:35 | -20.43008 | 57.67803 | 194 ft | 5 kts | 295° |
| 2026-04-26 10:35 | -20.42991 | 57.67763 | 194 ft | 6 kts | 295° |
| 2026-04-26 10:35 | -20.42970 | 57.67717 | 194 ft | 7 kts | 294° |
| 2026-04-26 10:36 | -20.42946 | 57.67667 | 194 ft | 7 kts | 317° |
| 2026-04-26 10:36 | -20.42899 | 57.67638 | 194 ft | 7 kts | 332° |
| 2026-04-26 10:36 | -20.42851 | 57.67609 | 194 ft | 8 kts | 330° |
| 2026-04-26 10:36 | -20.42802 | 57.67575 | 194 ft | 8 kts | 325° |
| 2026-04-26 10:37 | -20.42753 | 57.67540 | 194 ft | 8 kts | 325° |
| 2026-04-26 10:37 | -20.42705 | 57.67501 | 194 ft | 8 kts | 327° |
| 2026-04-26 10:37 | -20.42649 | 57.67474 | 194 ft | 8 kts | 340° |
| 2026-04-26 10:37 | -20.42586 | 57.67450 | 194 ft | 10 kts | 337° |
| 2026-04-26 10:38 | -20.42533 | 57.67392 | 195 ft | 12 kts | 300° |
| 2026-04-26 10:38 | -20.42491 | 57.67309 | 195 ft | 13 kts | 298° |
| 2026-04-26 10:38 | -20.42446 | 57.67214 | 195 ft | 15 kts | 295° |
| 2026-04-26 10:38 | -20.42407 | 57.67104 | 195 ft | 16 kts | 279° |
| 2026-04-26 10:39 | -20.42397 | 57.66973 | 195 ft | 18 kts | 284° |
| 2026-04-26 10:39 | -20.42361 | 57.66926 | 195 ft | 7 kts | 351° |
| 2026-04-26 10:39 | -20.42328 | 57.66954 | 195 ft | 6 kts | 86° |
| 2026-04-26 10:39 | -20.42342 | 57.66995 | 195 ft | 3 kts | 115° |
| 2026-04-26 10:40 | -20.42347 | 57.67005 | 195 ft | 0 kts | 115° |
| 2026-04-26 10:40 | -20.42352 | 57.67016 | 195 ft | 10 kts | 117° |
| 2026-04-26 10:40 | -20.42477 | 57.67275 | 195 ft | 68 kts | 117° |
| 2026-04-26 10:41 | -20.42779 | 57.67897 | 194 ft | 118 kts | 117° |
| 2026-04-26 10:41 | -20.43216 | 57.68803 | 198 ft | 155 kts | 113° |
| 2026-04-26 10:41 | -20.43729 | 57.69831 | 576 ft | 153 kts | 115° |
| 2026-04-26 10:41 | -20.44297 | 57.70697 | 1186 ft | 142 kts | 127° |
| 2026-04-26 10:42 | -20.45004 | 57.71496 | 1551 ft | 153 kts | 129° |
| 2026-04-26 10:42 | -20.45507 | 57.72017 | 1690 ft | 154 kts | 133° |
| 2026-04-26 10:42 | -20.46291 | 57.73392 | 1770 ft | 163 kts | 92° |
| 2026-04-26 10:42 | -20.46059 | 57.74489 | 2192 ft | 151 kts | 59° |
| 2026-04-26 10:43 | -20.45162 | 57.75125 | 2238 ft | 171 kts | 12° |
| 2026-04-26 10:43 | -20.43927 | 57.74948 | 2385 ft | 187 kts | 344° |
| 2026-04-26 10:43 | -20.42712 | 57.74314 | 2543 ft | 201 kts | 336° |
| 2026-04-26 10:43 | -20.41432 | 57.73641 | 2733 ft | 213 kts | 340° |
| 2026-04-26 10:44 | -20.40018 | 57.72954 | 2910 ft | 228 kts | 339° |
| 2026-04-26 10:44 | -20.38553 | 57.72192 | 3143 ft | 241 kts | 334° |
| 2026-04-26 10:44 | -20.37076 | 57.71241 | 3445 ft | 252 kts | 328° |
| 2026-04-26 10:44 | -20.35644 | 57.70101 | 3793 ft | 260 kts | 323° |
| 2026-04-26 10:45 | -20.34182 | 57.68988 | 4123 ft | 261 kts | 339° |
| 2026-04-26 10:45 | -20.32407 | 57.68607 | 4457 ft | 262 kts | 354° |
| 2026-04-26 10:45 | -20.30646 | 57.68025 | 4886 ft | 268 kts | 339° |
| 2026-04-26 10:45 | -20.28923 | 57.67193 | 5322 ft | 269 kts | 335° |
| 2026-04-26 10:46 | -20.27277 | 57.66309 | 5751 ft | 267 kts | 334° |
| 2026-04-26 10:46 | -20.25621 | 57.65395 | 6175 ft | 268 kts | 335° |
| 2026-04-26 10:46 | -20.23954 | 57.64472 | 6597 ft | 270 kts | 335° |
| 2026-04-26 10:46 | -20.22260 | 57.63533 | 7015 ft | 273 kts | 334° |
| 2026-04-26 10:47 | -20.20575 | 57.62595 | 7427 ft | 275 kts | 334° |
| 2026-04-26 10:47 | -20.18852 | 57.61636 | 7851 ft | 277 kts | 334° |
| 2026-04-26 10:47 | -20.17129 | 57.60684 | 8271 ft | 280 kts | 336° |
| 2026-04-26 10:47 | -20.15285 | 57.59978 | 8695 ft | 283 kts | 344° |
| 2026-04-26 10:48 | -20.13407 | 57.59309 | 9126 ft | 287 kts | 343° |
| 2026-04-26 10:48 | -20.11491 | 57.58627 | 9578 ft | 291 kts | 343° |
| 2026-04-26 10:48 | -20.09570 | 57.57936 | 10028 ft | 295 kts | 343° |
| 2026-04-26 10:48 | -20.07615 | 57.57236 | 10492 ft | 298 kts | 343° |
| 2026-04-26 10:49 | -20.05643 | 57.56528 | 10955 ft | 302 kts | 342° |
| 2026-04-26 10:49 | -20.03626 | 57.55805 | 11430 ft | 305 kts | 342° |
| 2026-04-26 10:49 | -20.01584 | 57.55071 | 11913 ft | 308 kts | 342° |
| 2026-04-26 10:49 | -19.99549 | 57.54342 | 12392 ft | 311 kts | 342° |
| 2026-04-26 10:50 | -19.97469 | 57.53596 | 12881 ft | 313 kts | 342° |
| 2026-04-26 10:50 | -19.96084 | 57.53101 | 13205 ft | 315 kts | 342° |
| 2026-04-26 10:50 | -19.93302 | 57.52106 | 13859 ft | 319 kts | 342° |
| 2026-04-26 10:50 | -19.91191 | 57.51351 | 14355 ft | 322 kts | 342° |
| 2026-04-26 10:51 | -19.89044 | 57.50584 | 14854 ft | 325 kts | 342° |
| 2026-04-26 10:51 | -19.84859 | 57.48694 | 15837 ft | 330 kts | 334° |
| 2026-04-26 10:51 | -19.82786 | 57.47624 | 16344 ft | 333 kts | 333° |
| 2026-04-26 10:52 | -19.80686 | 57.46537 | 16858 ft | 335 kts | 333° |
| 2026-04-26 10:52 | -19.78548 | 57.45432 | 17384 ft | 337 kts | 333° |
| 2026-04-26 10:52 | -19.76425 | 57.44336 | 17911 ft | 340 kts | 333° |
| 2026-04-26 10:52 | -19.74317 | 57.43249 | 18437 ft | 342 kts | 333° |
| 2026-04-26 10:53 | -19.72152 | 57.42133 | 18978 ft | 344 kts | 332° |
| 2026-04-26 10:53 | -19.69992 | 57.41018 | 19518 ft | 345 kts | 332° |
| 2026-04-26 10:53 | -19.67845 | 57.39912 | 20052 ft | 346 kts | 332° |
| 2026-04-26 10:54 | -19.63494 | 57.37672 | 21110 ft | 347 kts | 331° |
| 2026-04-26 10:54 | -19.61340 | 57.36561 | 21619 ft | 347 kts | 331° |
| 2026-04-26 10:54 | -19.59179 | 57.35448 | 22124 ft | 347 kts | 331° |
| 2026-04-26 10:54 | -19.56981 | 57.34317 | 22634 ft | 347 kts | 331° |
| 2026-04-26 10:55 | -19.54834 | 57.33212 | 23129 ft | 347 kts | 331° |
| 2026-04-26 10:55 | -19.52643 | 57.32084 | 23624 ft | 347 kts | 331° |
| 2026-04-26 10:55 | -19.50478 | 57.30970 | 24099 ft | 347 kts | 331° |
| 2026-04-26 10:55 | -19.49026 | 57.30225 | 24414 ft | 347 kts | 330° |
| 2026-04-26 10:56 | -19.46132 | 57.28737 | 25022 ft | 348 kts | 330° |
| 2026-04-26 10:56 | -19.43929 | 57.27605 | 25470 ft | 348 kts | 330° |
| 2026-04-26 10:56 | -19.41746 | 57.26483 | 25907 ft | 349 kts | 330° |
| 2026-04-26 10:56 | -19.39577 | 57.25369 | 26328 ft | 349 kts | 330° |
| 2026-04-26 10:57 | -19.37372 | 57.24237 | 26748 ft | 349 kts | 330° |
| 2026-04-26 10:57 | -19.35196 | 57.23123 | 27152 ft | 350 kts | 330° |
| 2026-04-26 10:57 | -19.33003 | 57.21997 | 27548 ft | 350 kts | 330° |
| 2026-04-26 10:57 | -19.30801 | 57.20867 | 27937 ft | 351 kts | 330° |
| 2026-04-26 10:58 | -19.28577 | 57.19728 | 28320 ft | 351 kts | 330° |
| 2026-04-26 10:58 | -19.26397 | 57.18610 | 28687 ft | 352 kts | 329° |
| 2026-04-26 10:58 | -19.24186 | 57.17478 | 29039 ft | 352 kts | 329° |
| 2026-04-26 10:58 | -19.21961 | 57.16338 | 29386 ft | 353 kts | 329° |
| 2026-04-26 10:59 | -19.19754 | 57.15210 | 29733 ft | 353 kts | 329° |
| 2026-04-26 10:59 | -19.17553 | 57.14082 | 30084 ft | 352 kts | 329° |
| 2026-04-26 10:59 | -19.15352 | 57.12956 | 30437 ft | 351 kts | 328° |
| 2026-04-26 10:59 | -19.13125 | 57.11818 | 30793 ft | 350 kts | 328° |
| 2026-04-26 11:00 | -19.10936 | 57.10698 | 31137 ft | 349 kts | 328° |
| 2026-04-26 11:00 | -19.08761 | 57.09587 | 31485 ft | 348 kts | 328° |
| 2026-04-26 11:00 | -19.06593 | 57.08477 | 31807 ft | 346 kts | 328° |
| 2026-04-26 11:00 | -19.04428 | 57.07371 | 32123 ft | 345 kts | 327° |
| 2026-04-26 11:01 | -19.02246 | 57.06253 | 32273 ft | 350 kts | 327° |
| 2026-04-26 11:01 | -19.00022 | 57.05116 | 32405 ft | 354 kts | 327° |
| 2026-04-26 11:01 | -18.97812 | 57.03986 | 32538 ft | 359 kts | 328° |
| 2026-04-26 11:01 | -18.95539 | 57.02828 | 32675 ft | 363 kts | 328° |
| 2026-04-26 11:02 | -18.93225 | 57.01645 | 32834 ft | 368 kts | 328° |
| 2026-04-26 11:02 | -18.90918 | 57.00468 | 32971 ft | 373 kts | 328° |
| 2026-04-26 11:02 | -18.86112 | 56.98019 | 32968 ft | 390 kts | 328° |
| 2026-04-26 11:03 | -18.81126 | 56.95476 | 32966 ft | 406 kts | 328° |
| 2026-04-26 11:03 | -18.75935 | 56.92833 | 32964 ft | 422 kts | 328° |
| 2026-04-26 11:04 | -18.70548 | 56.90093 | 32960 ft | 438 kts | 329° |
| 2026-04-26 11:04 | -18.64939 | 56.87242 | 32957 ft | 452 kts | 329° |
| 2026-04-26 11:05 | -18.59223 | 56.84338 | 32954 ft | 463 kts | 329° |
| 2026-04-26 11:05 | -18.53392 | 56.81379 | 32950 ft | 464 kts | 329° |
| 2026-04-26 11:06 | -18.48548 | 56.78924 | 32953 ft | 463 kts | 329° |
| 2026-04-26 11:06 | -18.41750 | 56.75476 | 32951 ft | 463 kts | 329° |
| 2026-04-26 11:07 | -18.35937 | 56.72532 | 32946 ft | 463 kts | 329° |
| 2026-04-26 11:07 | -18.30131 | 56.69593 | 32944 ft | 463 kts | 329° |
| 2026-04-26 11:08 | -18.24316 | 56.66654 | 32939 ft | 463 kts | 329° |
| 2026-04-26 11:08 | -18.18533 | 56.63729 | 32934 ft | 463 kts | 329° |
| 2026-04-26 11:09 | -18.12711 | 56.60790 | 32932 ft | 464 kts | 329° |
| 2026-04-26 11:09 | -18.06561 | 56.58622 | 32927 ft | 477 kts | 350° |
| 2026-04-26 11:10 | -17.99909 | 56.58032 | 32928 ft | 479 kts | 350° |
| 2026-04-26 11:10 | -17.93294 | 56.57413 | 32934 ft | 479 kts | 350° |
| 2026-04-26 11:11 | -17.86627 | 56.56784 | 32928 ft | 479 kts | 350° |
| 2026-04-26 11:11 | -17.79969 | 56.56153 | 32931 ft | 478 kts | 350° |
| 2026-04-26 11:12 | -17.73345 | 56.55530 | 32930 ft | 477 kts | 350° |
| 2026-04-26 11:12 | -17.66747 | 56.54906 | 32933 ft | 476 kts | 350° |
| 2026-04-26 11:13 | -17.60125 | 56.54283 | 32928 ft | 475 kts | 350° |
| 2026-04-26 11:13 | -17.53520 | 56.53660 | 32933 ft | 476 kts | 350° |
| 2026-04-26 11:14 | -17.46952 | 56.53043 | 32935 ft | 474 kts | 350° |
| 2026-04-26 11:14 | -17.41483 | 56.52528 | 32937 ft | 475 kts | 350° |
| 2026-04-26 11:15 | -17.33742 | 56.51799 | 32942 ft | 476 kts | 350° |
| 2026-04-26 11:15 | -17.27152 | 56.51181 | 32947 ft | 474 kts | 350° |
| 2026-04-26 11:16 | -17.20565 | 56.50563 | 32951 ft | 473 kts | 350° |
| 2026-04-26 11:16 | -17.14001 | 56.49948 | 32956 ft | 473 kts | 350° |
| 2026-04-26 11:17 | -17.07460 | 56.49334 | 32945 ft | 472 kts | 350° |
| 2026-04-26 11:17 | -17.00894 | 56.48719 | 32950 ft | 472 kts | 350° |
| 2026-04-26 11:18 | -16.94326 | 56.48106 | 32952 ft | 472 kts | 350° |
| 2026-04-26 11:18 | -16.87786 | 56.47494 | 32952 ft | 472 kts | 350° |
| 2026-04-26 11:19 | -16.81232 | 56.46881 | 32950 ft | 471 kts | 350° |
| 2026-04-26 11:19 | -16.74686 | 56.46269 | 32949 ft | 472 kts | 350° |
| 2026-04-26 11:20 | -16.69236 | 56.45761 | 32950 ft | 471 kts | 350° |
| 2026-04-26 11:20 | -16.61593 | 56.45048 | 32949 ft | 471 kts | 350° |
| 2026-04-26 11:21 | -16.55063 | 56.44441 | 32950 ft | 470 kts | 350° |
| 2026-04-26 11:21 | -16.48530 | 56.43830 | 32950 ft | 469 kts | 350° |
| 2026-04-26 11:22 | -16.42029 | 56.43226 | 32950 ft | 470 kts | 350° |
| 2026-04-26 11:22 | -16.35451 | 56.42614 | 32950 ft | 470 kts | 350° |
| 2026-04-26 11:23 | -16.28949 | 56.42010 | 32948 ft | 470 kts | 350° |
| 2026-04-26 11:23 | -16.22446 | 56.41405 | 32943 ft | 469 kts | 350° |
| 2026-04-26 11:24 | -16.15916 | 56.40799 | 32939 ft | 469 kts | 350° |
| 2026-04-26 11:24 | -16.09390 | 56.40194 | 32940 ft | 468 kts | 350° |
| 2026-04-26 11:25 | -16.02896 | 56.39592 | 32938 ft | 468 kts | 350° |
| 2026-04-26 11:25 | -15.96412 | 56.38992 | 32930 ft | 468 kts | 350° |
| 2026-04-26 11:26 | -15.89916 | 56.38390 | 32925 ft | 468 kts | 350° |
| 2026-04-26 11:26 | -15.83406 | 56.37786 | 32928 ft | 468 kts | 350° |
| 2026-04-26 11:27 | -15.76909 | 56.37187 | 32926 ft | 467 kts | 350° |
| 2026-04-26 11:27 | -15.70416 | 56.36586 | 32926 ft | 467 kts | 350° |
| 2026-04-26 11:28 | -15.63913 | 56.35985 | 32928 ft | 466 kts | 350° |
| 2026-04-26 11:28 | -15.57444 | 56.35390 | 32924 ft | 466 kts | 350° |
| 2026-04-26 11:29 | -15.50973 | 56.34792 | 32938 ft | 466 kts | 351° |
| 2026-04-26 11:29 | -15.44509 | 56.34197 | 32936 ft | 466 kts | 350° |
| 2026-04-26 11:30 | -15.39102 | 56.33699 | 32938 ft | 465 kts | 351° |
| 2026-04-26 11:30 | -15.31596 | 56.33007 | 32941 ft | 464 kts | 351° |
| 2026-04-26 11:31 | -15.25149 | 56.32414 | 32939 ft | 464 kts | 351° |
| 2026-04-26 11:31 | -15.18682 | 56.31820 | 32943 ft | 464 kts | 351° |
| 2026-04-26 11:32 | -15.12215 | 56.31225 | 32951 ft | 465 kts | 351° |
| 2026-04-26 11:32 | -15.05761 | 56.30633 | 32952 ft | 464 kts | 351° |
| 2026-04-26 11:33 | -14.99343 | 56.30043 | 32953 ft | 462 kts | 351° |
| 2026-04-26 11:33 | -14.92936 | 56.29456 | 32956 ft | 463 kts | 351° |
| 2026-04-26 11:34 | -14.86516 | 56.28869 | 32961 ft | 462 kts | 351° |
| 2026-04-26 11:34 | -14.80062 | 56.28276 | 32954 ft | 464 kts | 351° |
| 2026-04-26 11:35 | -14.73639 | 56.27689 | 32951 ft | 464 kts | 351° |
| 2026-04-26 11:35 | -14.68241 | 56.27195 | 32947 ft | 465 kts | 351° |
| 2026-04-26 11:36 | -14.60741 | 56.26509 | 32945 ft | 464 kts | 351° |
| 2026-04-26 11:36 | -14.54299 | 56.25921 | 32945 ft | 464 kts | 351° |
| 2026-04-26 11:37 | -14.47837 | 56.25330 | 32943 ft | 463 kts | 351° |
| 2026-04-26 11:37 | -14.41417 | 56.24743 | 32943 ft | 464 kts | 351° |
| 2026-04-26 11:38 | -14.34925 | 56.24152 | 32942 ft | 465 kts | 351° |
| 2026-04-26 11:38 | -14.28486 | 56.23564 | 32941 ft | 464 kts | 351° |
| 2026-04-26 11:39 | -14.22042 | 56.22978 | 32939 ft | 464 kts | 351° |
| 2026-04-26 11:39 | -14.15585 | 56.22390 | 32940 ft | 463 kts | 351° |
| 2026-04-26 11:40 | -14.09167 | 56.21804 | 32936 ft | 463 kts | 351° |
| 2026-04-26 11:40 | -14.02727 | 56.21220 | 32934 ft | 462 kts | 351° |
| 2026-04-26 11:42 | -13.76918 | 56.18876 | 32937 ft | 465 kts | 351° |
| 2026-04-26 11:43 | -13.70480 | 56.18292 | 32937 ft | 464 kts | 351° |
| 2026-04-26 11:43 | -13.64046 | 56.17709 | 32935 ft | 464 kts | 351° |
| 2026-04-26 11:44 | -13.57574 | 56.17122 | 32934 ft | 465 kts | 351° |
| 2026-04-26 11:44 | -13.51105 | 56.16536 | 32931 ft | 465 kts | 351° |
| 2026-04-26 11:45 | -13.44631 | 56.15950 | 32925 ft | 467 kts | 351° |
| 2026-04-26 11:45 | -13.38177 | 56.15365 | 32922 ft | 466 kts | 351° |
| 2026-04-26 11:46 | -13.31669 | 56.14777 | 32922 ft | 467 kts | 351° |
| 2026-04-26 11:46 | -13.25174 | 56.14189 | 32919 ft | 466 kts | 351° |
| 2026-04-26 11:47 | -13.18702 | 56.13606 | 32917 ft | 466 kts | 351° |
| 2026-04-26 11:47 | -13.12215 | 56.13021 | 32917 ft | 467 kts | 351° |
| 2026-04-26 11:48 | -13.05734 | 56.12436 | 32918 ft | 468 kts | 352° |
| 2026-04-26 11:48 | -12.99200 | 56.11847 | 32925 ft | 468 kts | 351° |
| 2026-04-26 11:49 | -12.92694 | 56.11260 | 32934 ft | 468 kts | 351° |
| 2026-04-26 11:49 | -12.86227 | 56.10678 | 32935 ft | 466 kts | 351° |
| 2026-04-26 11:50 | -12.79764 | 56.10095 | 32934 ft | 465 kts | 352° |
| 2026-04-26 11:50 | -12.73310 | 56.09515 | 32932 ft | 466 kts | 352° |
| 2026-04-26 11:51 | -12.66793 | 56.08929 | 32935 ft | 467 kts | 351° |
| 2026-04-26 11:51 | -12.60323 | 56.08347 | 32935 ft | 467 kts | 352° |
| 2026-04-26 11:52 | -12.54931 | 56.07861 | 32933 ft | 466 kts | 352° |
| 2026-04-26 11:52 | -12.47389 | 56.07186 | 32936 ft | 465 kts | 352° |
| 2026-04-26 11:53 | -12.40899 | 56.06603 | 32935 ft | 465 kts | 352° |
| 2026-04-26 11:54 | -12.31237 | 56.05738 | 32931 ft | 466 kts | 352° |
| 2026-04-26 11:54 | -12.24763 | 56.05156 | 32926 ft | 466 kts | 352° |
| 2026-04-26 11:55 | -12.18279 | 56.04575 | 32918 ft | 464 kts | 352° |
| 2026-04-26 11:55 | -12.11815 | 56.04029 | 32907 ft | 465 kts | 356° |
| 2026-04-26 11:55 | -12.08587 | 56.04366 | 32919 ft | 469 kts | 7° |
| 2026-04-26 11:56 | -12.05351 | 56.04883 | 32924 ft | 470 kts | 6° |
| 2026-04-26 11:56 | -11.98875 | 56.05922 | 32916 ft | 471 kts | 6° |
| 2026-04-26 11:57 | -11.92363 | 56.06955 | 32914 ft | 471 kts | 6° |
| 2026-04-26 11:57 | -11.85873 | 56.07985 | 32915 ft | 471 kts | 6° |
| 2026-04-26 11:58 | -11.79363 | 56.09018 | 32915 ft | 471 kts | 6° |
| 2026-04-26 11:58 | -11.72900 | 56.10041 | 32915 ft | 470 kts | 6° |
| 2026-04-26 11:59 | -11.66385 | 56.11071 | 32915 ft | 470 kts | 6° |
| 2026-04-26 11:59 | -11.59886 | 56.12100 | 32915 ft | 469 kts | 6° |
| 2026-04-26 12:00 | -11.53427 | 56.13120 | 32915 ft | 470 kts | 6° |
| 2026-04-26 12:00 | -11.46934 | 56.14147 | 32915 ft | 470 kts | 6° |
| 2026-04-26 12:01 | -11.40459 | 56.15169 | 32915 ft | 471 kts | 6° |
| 2026-04-26 12:01 | -11.33925 | 56.16201 | 32913 ft | 471 kts | 6° |
| 2026-04-26 12:02 | -11.27383 | 56.17234 | 32913 ft | 470 kts | 6° |
| 2026-04-26 12:02 | -11.20913 | 56.18254 | 32921 ft | 470 kts | 6° |
| 2026-04-26 12:03 | -11.14405 | 56.19281 | 32933 ft | 471 kts | 6° |
| 2026-04-26 12:03 | -11.07935 | 56.20300 | 32931 ft | 471 kts | 6° |
| 2026-04-26 12:04 | -11.01395 | 56.21331 | 32930 ft | 470 kts | 6° |
| 2026-04-26 12:04 | -10.94910 | 56.22352 | 32930 ft | 470 kts | 6° |
| 2026-04-26 12:05 | -10.88408 | 56.23375 | 32927 ft | 471 kts | 6° |
| 2026-04-26 12:05 | -10.81892 | 56.24400 | 32925 ft | 471 kts | 6° |
| 2026-04-26 12:06 | -10.75387 | 56.25424 | 32928 ft | 471 kts | 6° |
| 2026-04-26 12:06 | -10.68881 | 56.26446 | 32919 ft | 470 kts | 6° |
| 2026-04-26 12:07 | -10.62404 | 56.27463 | 32916 ft | 469 kts | 6° |
| 2026-04-26 12:07 | -10.55965 | 56.28474 | 32912 ft | 469 kts | 6° |
| 2026-04-26 12:08 | -10.49489 | 56.29490 | 32911 ft | 470 kts | 6° |
| 2026-04-26 12:08 | -10.43004 | 56.30510 | 32914 ft | 471 kts | 6° |
| 2026-04-26 12:09 | -10.36502 | 56.31529 | 32914 ft | 471 kts | 6° |
| 2026-04-26 12:09 | -10.30021 | 56.32546 | 32914 ft | 470 kts | 6° |
| 2026-04-26 12:10 | -10.23557 | 56.33559 | 32915 ft | 469 kts | 6° |
| 2026-04-26 12:10 | -10.17054 | 56.34578 | 32915 ft | 470 kts | 6° |
| 2026-04-26 12:11 | -10.10596 | 56.35589 | 32915 ft | 471 kts | 6° |
| 2026-04-26 12:11 | -10.04110 | 56.36603 | 32915 ft | 471 kts | 6° |
| 2026-04-26 12:12 | -9.97594 | 56.36988 | 32911 ft | 465 kts | 351° |
| 2026-04-26 12:12 | -9.91103 | 56.36201 | 32910 ft | 468 kts | 351° |
| 2026-04-26 12:13 | -9.84640 | 56.35436 | 32915 ft | 467 kts | 351° |
| 2026-04-26 12:13 | -9.78157 | 56.34668 | 32916 ft | 467 kts | 351° |
| 2026-04-26 12:14 | -9.71715 | 56.33907 | 32916 ft | 466 kts | 351° |
| 2026-04-26 12:14 | -9.65259 | 56.33143 | 32916 ft | 466 kts | 351° |
| 2026-04-26 12:15 | -9.58787 | 56.32378 | 32916 ft | 467 kts | 351° |
| 2026-04-26 12:15 | -9.52309 | 56.31614 | 32915 ft | 467 kts | 351° |
| 2026-04-26 12:16 | -9.45821 | 56.30846 | 32915 ft | 468 kts | 351° |
| 2026-04-26 12:16 | -9.39319 | 56.30080 | 32915 ft | 468 kts | 352° |
| 2026-04-26 12:17 | -9.32887 | 56.29321 | 32914 ft | 466 kts | 352° |
| 2026-04-26 12:17 | -9.26400 | 56.28557 | 32921 ft | 466 kts | 351° |
| 2026-04-26 12:18 | -9.19920 | 56.27792 | 32925 ft | 466 kts | 351° |
| 2026-04-26 12:18 | -9.13474 | 56.27033 | 32927 ft | 467 kts | 351° |
| 2026-04-26 12:19 | -9.07004 | 56.26271 | 32931 ft | 468 kts | 351° |
| 2026-04-26 12:19 | -9.00509 | 56.25505 | 32931 ft | 468 kts | 351° |
| 2026-04-26 12:20 | -8.94026 | 56.24742 | 32928 ft | 467 kts | 352° |
| 2026-04-26 12:20 | -8.87531 | 56.23978 | 32929 ft | 467 kts | 352° |
| 2026-04-26 12:21 | -8.81049 | 56.23216 | 32927 ft | 467 kts | 352° |
| 2026-04-26 12:21 | -8.74572 | 56.22454 | 32921 ft | 468 kts | 352° |
| 2026-04-26 12:22 | -8.68100 | 56.21695 | 32913 ft | 469 kts | 352° |
| 2026-04-26 12:22 | -8.61618 | 56.20933 | 32913 ft | 469 kts | 352° |
| 2026-04-26 12:23 | -8.55089 | 56.20166 | 32912 ft | 469 kts | 352° |
| 2026-04-26 12:23 | -8.48616 | 56.19406 | 32913 ft | 468 kts | 352° |
| 2026-04-26 12:24 | -8.42104 | 56.18641 | 32914 ft | 468 kts | 352° |
| 2026-04-26 12:24 | -8.35605 | 56.17879 | 32914 ft | 469 kts | 352° |
| 2026-04-26 12:25 | -8.25836 | 56.16734 | 32914 ft | 470 kts | 352° |
| 2026-04-26 12:25 | -8.19352 | 56.15973 | 32914 ft | 469 kts | 352° |
| 2026-04-26 12:26 | -8.12842 | 56.15210 | 32914 ft | 469 kts | 352° |
| 2026-04-26 12:26 | -8.06322 | 56.14446 | 32914 ft | 469 kts | 352° |
| 2026-04-26 12:27 | -7.99810 | 56.13683 | 32914 ft | 470 kts | 352° |
| 2026-04-26 12:27 | -7.93308 | 56.12923 | 32913 ft | 469 kts | 352° |
| 2026-04-26 12:28 | -7.86785 | 56.12159 | 32915 ft | 469 kts | 352° |
| 2026-04-26 12:28 | -7.80286 | 56.11399 | 32915 ft | 469 kts | 352° |
| 2026-04-26 12:29 | -7.73790 | 56.10638 | 32914 ft | 469 kts | 352° |
| 2026-04-26 12:30 | -7.64015 | 56.09486 | 32910 ft | 469 kts | 351° |
| 2026-04-26 12:30 | -7.60871 | 56.08648 | 32905 ft | 467 kts | 340° |
| 2026-04-26 12:30 | -7.57805 | 56.07646 | 32929 ft | 468 kts | 341° |
| 2026-04-26 12:31 | -7.48501 | 56.04604 | 32914 ft | 467 kts | 341° |
| 2026-04-26 12:31 | -7.42288 | 56.02581 | 32921 ft | 467 kts | 341° |
| 2026-04-26 12:32 | -7.36031 | 56.00544 | 32921 ft | 468 kts | 341° |
| 2026-04-26 12:33 | -7.26735 | 55.97519 | 32918 ft | 468 kts | 341° |
| 2026-04-26 12:33 | -7.20496 | 55.95488 | 32926 ft | 468 kts | 341° |
| 2026-04-26 12:34 | -7.14261 | 55.93460 | 32933 ft | 468 kts | 341° |
| 2026-04-26 12:34 | -7.08030 | 55.91436 | 32934 ft | 467 kts | 341° |
| 2026-04-26 12:35 | -7.01822 | 55.89418 | 32934 ft | 468 kts | 341° |
| 2026-04-26 12:35 | -6.95593 | 55.87407 | 32924 ft | 465 kts | 345° |
| 2026-04-26 12:36 | -6.89217 | 55.86671 | 32936 ft | 456 kts | 353° |
| 2026-04-26 12:36 | -6.82861 | 55.86081 | 32927 ft | 456 kts | 353° |
| 2026-04-26 12:37 | -6.76513 | 55.85486 | 32912 ft | 454 kts | 354° |
| 2026-04-26 12:37 | -6.73383 | 55.85195 | 32343 ft | 446 kts | 354° |
| 2026-04-26 12:37 | -6.70272 | 55.84904 | 30977 ft | 454 kts | 354° |
| 2026-04-26 12:37 | -6.67167 | 55.84613 | 30624 ft | 446 kts | 353° |
| 2026-04-26 12:38 | -6.64051 | 55.84323 | 30381 ft | 453 kts | 353° |
| 2026-04-26 12:38 | -6.60898 | 55.84027 | 30019 ft | 454 kts | 353° |
| 2026-04-26 12:38 | -6.57739 | 55.83733 | 29663 ft | 452 kts | 353° |
| 2026-04-26 12:38 | -6.54624 | 55.83442 | 29312 ft | 452 kts | 353° |
| 2026-04-26 12:39 | -6.51444 | 55.83145 | 28964 ft | 456 kts | 353° |
| 2026-04-26 12:39 | -6.48278 | 55.82850 | 28624 ft | 460 kts | 353° |
| 2026-04-26 12:39 | -6.45059 | 55.82550 | 28282 ft | 459 kts | 353° |
| 2026-04-26 12:39 | -6.41899 | 55.82254 | 27940 ft | 454 kts | 353° |
| 2026-04-26 12:40 | -6.38779 | 55.81963 | 27594 ft | 450 kts | 353° |
| 2026-04-26 12:40 | -6.35681 | 55.81674 | 27263 ft | 448 kts | 353° |
| 2026-04-26 12:40 | -6.32583 | 55.81385 | 26968 ft | 445 kts | 353° |
| 2026-04-26 12:40 | -6.29463 | 55.81094 | 26676 ft | 444 kts | 353° |
| 2026-04-26 12:41 | -6.26367 | 55.80806 | 26383 ft | 445 kts | 353° |
| 2026-04-26 12:41 | -6.23296 | 55.80519 | 25957 ft | 446 kts | 353° |
| 2026-04-26 12:41 | -6.20209 | 55.80232 | 25383 ft | 440 kts | 353° |
| 2026-04-26 12:41 | -6.17178 | 55.79948 | 24856 ft | 429 kts | 353° |
| 2026-04-26 12:42 | -6.14245 | 55.79675 | 24335 ft | 419 kts | 353° |
| 2026-04-26 12:42 | -6.11370 | 55.79408 | 23803 ft | 410 kts | 354° |
| 2026-04-26 12:42 | -6.08537 | 55.79144 | 23274 ft | 404 kts | 354° |
| 2026-04-26 12:42 | -6.05769 | 55.78886 | 22753 ft | 402 kts | 353° |
| 2026-04-26 12:43 | -6.02947 | 55.78623 | 22221 ft | 402 kts | 353° |
| 2026-04-26 12:43 | -6.00169 | 55.78363 | 21708 ft | 399 kts | 354° |
| 2026-04-26 12:43 | -5.97447 | 55.78108 | 21202 ft | 392 kts | 354° |
| 2026-04-26 12:43 | -5.94734 | 55.77855 | 20701 ft | 384 kts | 354° |
| 2026-04-26 12:44 | -5.92094 | 55.77609 | 20220 ft | 378 kts | 354° |
| 2026-04-26 12:44 | -5.89488 | 55.77366 | 19752 ft | 376 kts | 355° |
| 2026-04-26 12:44 | -5.86864 | 55.77121 | 19282 ft | 374 kts | 355° |
| 2026-04-26 12:44 | -5.84312 | 55.76884 | 18816 ft | 368 kts | 355° |
| 2026-04-26 12:45 | -5.81763 | 55.76646 | 18350 ft | 363 kts | 355° |
| 2026-04-26 12:45 | -5.79270 | 55.76415 | 17895 ft | 358 kts | 355° |
| 2026-04-26 12:45 | -5.76771 | 55.76181 | 17441 ft | 354 kts | 356° |
| 2026-04-26 12:45 | -5.74326 | 55.75956 | 16993 ft | 351 kts | 356° |
| 2026-04-26 12:46 | -5.71895 | 55.75731 | 16545 ft | 350 kts | 355° |
| 2026-04-26 12:46 | -5.69491 | 55.75508 | 16098 ft | 348 kts | 356° |
| 2026-04-26 12:46 | -5.67054 | 55.75281 | 15639 ft | 347 kts | 356° |
| 2026-04-26 12:46 | -5.64666 | 55.75060 | 15181 ft | 344 kts | 355° |
| 2026-04-26 12:47 | -5.62272 | 55.74837 | 14721 ft | 343 kts | 355° |
| 2026-04-26 12:47 | -5.59935 | 55.74620 | 14262 ft | 336 kts | 355° |
| 2026-04-26 12:47 | -5.57627 | 55.74406 | 13798 ft | 329 kts | 355° |
| 2026-04-26 12:47 | -5.55336 | 55.74194 | 13383 ft | 326 kts | 355° |
| 2026-04-26 12:48 | -5.53084 | 55.73985 | 12942 ft | 324 kts | 354° |
| 2026-04-26 12:48 | -5.50853 | 55.73775 | 12504 ft | 322 kts | 354° |
| 2026-04-26 12:48 | -5.48609 | 55.73566 | 12067 ft | 321 kts | 354° |
| 2026-04-26 12:48 | -5.46388 | 55.73359 | 11642 ft | 319 kts | 354° |
| 2026-04-26 12:49 | -5.44176 | 55.73154 | 11229 ft | 317 kts | 354° |
| 2026-04-26 12:49 | -5.41968 | 55.72949 | 10831 ft | 316 kts | 354° |
| 2026-04-26 12:49 | -5.39781 | 55.72746 | 10447 ft | 314 kts | 354° |
| 2026-04-26 12:49 | -5.37605 | 55.72545 | 10137 ft | 310 kts | 354° |
| 2026-04-26 12:50 | -5.35464 | 55.72343 | 10099 ft | 309 kts | 354° |
| 2026-04-26 12:50 | -5.33342 | 55.72149 | 10010 ft | 297 kts | 354° |
| 2026-04-26 12:50 | -5.31316 | 55.71959 | 9898 ft | 292 kts | 354° |
| 2026-04-26 12:50 | -5.29263 | 55.71768 | 9725 ft | 295 kts | 354° |
| 2026-04-26 12:51 | -5.27211 | 55.71577 | 9363 ft | 295 kts | 354° |
| 2026-04-26 12:51 | -5.25171 | 55.71388 | 9043 ft | 293 kts | 353° |
| 2026-04-26 12:51 | -5.23123 | 55.71197 | 8732 ft | 291 kts | 354° |
| 2026-04-26 12:51 | -5.21098 | 55.71009 | 8433 ft | 290 kts | 353° |
| 2026-04-26 12:52 | -5.19071 | 55.70821 | 8138 ft | 290 kts | 354° |
| 2026-04-26 12:52 | -5.17061 | 55.70633 | 7849 ft | 288 kts | 353° |
| 2026-04-26 12:52 | -5.15047 | 55.70446 | 7563 ft | 285 kts | 354° |
| 2026-04-26 12:52 | -5.13115 | 55.70267 | 7282 ft | 276 kts | 353° |
| 2026-04-26 12:53 | -5.11187 | 55.70088 | 7013 ft | 272 kts | 353° |
| 2026-04-26 12:53 | -5.09308 | 55.69912 | 6758 ft | 272 kts | 353° |
| 2026-04-26 12:53 | -5.07429 | 55.69737 | 6501 ft | 271 kts | 353° |
| 2026-04-26 12:53 | -5.05530 | 55.69560 | 6239 ft | 270 kts | 353° |
| 2026-04-26 12:54 | -5.03650 | 55.69386 | 5981 ft | 270 kts | 353° |
| 2026-04-26 12:54 | -5.01774 | 55.69211 | 5726 ft | 270 kts | 353° |
| 2026-04-26 12:54 | -4.99920 | 55.69038 | 5472 ft | 269 kts | 353° |
| 2026-04-26 12:54 | -4.98049 | 55.68864 | 5216 ft | 268 kts | 354° |
| 2026-04-26 12:55 | -4.96176 | 55.68690 | 4960 ft | 267 kts | 354° |
| 2026-04-26 12:55 | -4.94526 | 55.68539 | 4734 ft | 267 kts | 353° |
| 2026-04-26 12:55 | -4.92674 | 55.68365 | 4478 ft | 265 kts | 353° |
| 2026-04-26 12:55 | -4.90815 | 55.68193 | 4218 ft | 264 kts | 354° |
| 2026-04-26 12:56 | -4.88983 | 55.68023 | 3950 ft | 263 kts | 354° |
| 2026-04-26 12:56 | -4.87152 | 55.67853 | 3688 ft | 261 kts | 354° |
| 2026-04-26 12:56 | -4.85330 | 55.67685 | 3634 ft | 261 kts | 353° |
| 2026-04-26 12:56 | -4.83558 | 55.67519 | 3576 ft | 246 kts | 354° |
| 2026-04-26 12:57 | -4.81902 | 55.67368 | 3454 ft | 234 kts | 354° |
| 2026-04-26 12:57 | -4.80314 | 55.67220 | 3361 ft | 222 kts | 353° |
| 2026-04-26 12:57 | -4.78780 | 55.67067 | 3276 ft | 216 kts | 348° |
| 2026-04-26 12:58 | -4.76637 | 55.65320 | 2880 ft | 200 kts | 303° |
| 2026-04-26 12:58 | -4.75868 | 55.64196 | 2680 ft | 189 kts | 302° |
| 2026-04-26 12:58 | -4.75136 | 55.63133 | 2322 ft | 179 kts | 304° |
| 2026-04-26 12:58 | -4.74453 | 55.62156 | 2101 ft | 167 kts | 303° |
| 2026-04-26 12:59 | -4.73805 | 55.61227 | 1842 ft | 160 kts | 303° |
| 2026-04-26 12:59 | -4.73170 | 55.60326 | 1621 ft | 156 kts | 303° |
| 2026-04-26 12:59 | -4.72544 | 55.59431 | 1430 ft | 153 kts | 303° |
| 2026-04-26 12:59 | -4.71941 | 55.58576 | 1245 ft | 148 kts | 303° |
| 2026-04-26 13:00 | -4.71351 | 55.57739 | 1046 ft | 147 kts | 303° |
| 2026-04-26 13:00 | -4.70763 | 55.56901 | 868 ft | 144 kts | 304° |
| 2026-04-26 13:00 | -4.70184 | 55.56079 | 681 ft | 145 kts | 304° |
| 2026-04-26 13:00 | -4.69595 | 55.55246 | 496 ft | 144 kts | 303° |
| 2026-04-26 13:01 | -4.69018 | 55.54441 | 324 ft | 144 kts | 304° |
| 2026-04-26 13:01 | -4.68440 | 55.53605 | 129 ft | 145 kts | 303° |
| 2026-04-26 13:01 | -4.67906 | 55.52869 | 20 ft | 134 kts | 303° |
| 2026-04-26 13:01 | -4.67495 | 55.52274 | 20 ft | 66 kts | 303° |
| 2026-04-26 13:02 | -4.67282 | 55.51973 | 23 ft | 47 kts | 305° |
| 2026-04-26 13:02 | -4.67114 | 55.51733 | 25 ft | 37 kts | 303° |
| 2026-04-26 13:02 | -4.66982 | 55.51544 | 25 ft | 29 kts | 308° |
| 2026-04-26 13:02 | -4.66897 | 55.51423 | 25 ft | 9 kts | 300° |
| 2026-04-26 13:03 | -4.66900 | 55.51385 | 25 ft | 4 kts | 233° |
| 2026-04-26 13:03 | -4.66914 | 55.51373 | 25 ft | 1 kts | 221° |
| 2026-04-26 13:03 | -4.66924 | 55.51364 | 25 ft | 2 kts | 220° |
| 2026-04-26 13:03 | -4.66942 | 55.51350 | 25 ft | 3 kts | 218° |
| 2026-04-26 13:04 | -4.66968 | 55.51331 | 25 ft | 5 kts | 216° |
| 2026-04-26 13:04 | -4.67002 | 55.51305 | 25 ft | 6 kts | 224° |
| 2026-04-26 13:04 | -4.67037 | 55.51269 | 25 ft | 7 kts | 217° |
| 2026-04-26 13:04 | -4.67066 | 55.51249 | 25 ft | 1 kts | 215° |
| 2026-04-26 13:05 | -4.67069 | 55.51247 | 25 ft | 0 kts | 214° |
| 2026-04-26 13:05 | -4.67073 | 55.51244 | 25 ft | 0 kts | 214° |